sensor_id;sensor_type;location;lat;lon;timestamp;P1;durP1;ratioP1;P2;durP2;ratioP2
65358;SDS011;52491;45.900;6.346;2024-01-25T00:00:41;2.30;;;1.83;;
65358;SDS011;52491;45.900;6.346;2024-01-25T00:03:06;2.50;;;1.65;;
65358;SDS011;52491;45.900;6.346;2024-01-25T00:05:35;2.38;;;1.92;;
65358;SDS011;52491;45.900;6.346;2024-01-25T00:08:04;3.13;;;2.05;;
65358;SDS011;52491;45.900;6.346;2024-01-25T00:10:32;2.70;;;2.28;;
65358;SDS011;52491;45.900;6.346;2024-01-25T00:12:57;2.20;;;2.00;;
65358;SDS011;52491;45.900;6.346;2024-01-25T00:15:23;3.95;;;2.35;;
65358;SDS011;52491;45.900;6.346;2024-01-25T00:17:51;1.90;;;1.65;;
65358;SDS011;52491;45.900;6.346;2024-01-25T00:20:17;2.50;;;1.83;;
65358;SDS011;52491;45.900;6.346;2024-01-25T00:22:45;2.35;;;2.08;;
65358;SDS011;52491;45.900;6.346;2024-01-25T00:25:11;2.50;;;1.85;;
65358;SDS011;52491;45.900;6.346;2024-01-25T00:27:36;2.13;;;1.73;;
65358;SDS011;52491;45.900;6.346;2024-01-25T00:30:02;2.13;;;1.85;;
65358;SDS011;52491;45.900;6.346;2024-01-25T00:32:29;3.25;;;1.92;;
65358;SDS011;52491;45.900;6.346;2024-01-25T00:34:55;2.85;;;2.22;;
65358;SDS011;52491;45.900;6.346;2024-01-25T00:37:21;2.28;;;1.85;;
65358;SDS011;52491;45.900;6.346;2024-01-25T00:39:47;1.83;;;1.48;;
65358;SDS011;52491;45.900;6.346;2024-01-25T00:42:14;1.90;;;1.73;;
65358;SDS011;52491;45.900;6.346;2024-01-25T00:44:41;2.45;;;1.73;;
65358;SDS011;52491;45.900;6.346;2024-01-25T00:47:06;2.03;;;1.83;;
65358;SDS011;52491;45.900;6.346;2024-01-25T00:49:36;2.05;;;1.85;;
65358;SDS011;52491;45.900;6.346;2024-01-25T00:52:02;2.20;;;1.85;;
65358;SDS011;52491;45.900;6.346;2024-01-25T00:54:28;2.80;;;1.65;;
65358;SDS011;52491;45.900;6.346;2024-01-25T00:56:55;1.80;;;1.15;;
65358;SDS011;52491;45.900;6.346;2024-01-25T00:59:21;3.33;;;1.77;;
65358;SDS011;52491;45.900;6.346;2024-01-25T01:01:49;1.73;;;1.63;;
65358;SDS011;52491;45.900;6.346;2024-01-25T01:04:18;1.58;;;1.35;;
65358;SDS011;52491;45.900;6.346;2024-01-25T01:06:46;2.38;;;1.40;;
65358;SDS011;52491;45.900;6.346;2024-01-25T01:09:16;1.65;;;1.52;;
65358;SDS011;52491;45.900;6.346;2024-01-25T01:11:42;1.58;;;1.48;;
65358;SDS011;52491;45.900;6.346;2024-01-25T01:14:08;2.08;;;1.30;;
65358;SDS011;52491;45.900;6.346;2024-01-25T01:16:36;2.85;;;1.35;;
65358;SDS011;52491;45.900;6.346;2024-01-25T01:19:02;2.08;;;1.80;;
65358;SDS011;52491;45.900;6.346;2024-01-25T01:21:34;1.50;;;1.40;;
65358;SDS011;52491;45.900;6.346;2024-01-25T01:24:03;2.88;;;1.40;;
65358;SDS011;52491;45.900;6.346;2024-01-25T01:26:32;1.42;;;1.33;;
65358;SDS011;52491;45.900;6.346;2024-01-25T01:29:00;1.95;;;1.60;;
65358;SDS011;52491;45.900;6.346;2024-01-25T01:31:25;1.92;;;1.40;;
65358;SDS011;52491;45.900;6.346;2024-01-25T01:33:51;2.22;;;1.70;;
65358;SDS011;52491;45.900;6.346;2024-01-25T01:36:16;1.67;;;1.38;;
65358;SDS011;52491;45.900;6.346;2024-01-25T01:38:42;2.22;;;1.20;;
65358;SDS011;52491;45.900;6.346;2024-01-25T01:41:09;1.75;;;1.27;;
65358;SDS011;52491;45.900;6.346;2024-01-25T01:43:35;1.35;;;1.15;;
65358;SDS011;52491;45.900;6.346;2024-01-25T01:46:03;2.45;;;1.90;;
65358;SDS011;52491;45.900;6.346;2024-01-25T01:48:34;2.67;;;1.80;;
65358;SDS011;52491;45.900;6.346;2024-01-25T01:51:00;2.70;;;1.52;;
65358;SDS011;52491;45.900;6.346;2024-01-25T01:53:26;2.13;;;1.58;;
65358;SDS011;52491;45.900;6.346;2024-01-25T01:55:52;1.40;;;1.30;;
65358;SDS011;52491;45.900;6.346;2024-01-25T01:58:18;1.70;;;1.17;;
65358;SDS011;52491;45.900;6.346;2024-01-25T02:00:45;1.88;;;1.40;;
65358;SDS011;52491;45.900;6.346;2024-01-25T02:03:13;2.15;;;1.60;;
65358;SDS011;52491;45.900;6.346;2024-01-25T02:05:38;2.70;;;1.50;;
65358;SDS011;52491;45.900;6.346;2024-01-25T02:08:04;1.60;;;1.50;;
65358;SDS011;52491;45.900;6.346;2024-01-25T02:10:30;1.58;;;1.45;;
65358;SDS011;52491;45.900;6.346;2024-01-25T02:12:55;1.70;;;1.27;;
65358;SDS011;52491;45.900;6.346;2024-01-25T02:15:21;1.45;;;1.15;;
65358;SDS011;52491;45.900;6.346;2024-01-25T02:17:46;1.80;;;1.48;;
65358;SDS011;52491;45.900;6.346;2024-01-25T02:20:12;2.28;;;1.40;;
65358;SDS011;52491;45.900;6.346;2024-01-25T02:22:37;2.38;;;1.55;;
65358;SDS011;52491;45.900;6.346;2024-01-25T02:25:03;1.30;;;1.10;;
65358;SDS011;52491;45.900;6.346;2024-01-25T02:27:29;1.60;;;1.48;;
65358;SDS011;52491;45.900;6.346;2024-01-25T02:29:54;2.00;;;1.52;;
65358;SDS011;52491;45.900;6.346;2024-01-25T02:32:20;1.40;;;1.10;;
65358;SDS011;52491;45.900;6.346;2024-01-25T02:34:45;1.65;;;1.55;;
65358;SDS011;52491;45.900;6.346;2024-01-25T02:37:11;2.58;;;1.45;;
65358;SDS011;52491;45.900;6.346;2024-01-25T02:39:37;1.35;;;1.25;;
65358;SDS011;52491;45.900;6.346;2024-01-25T02:42:03;1.05;;;0.98;;
65358;SDS011;52491;45.900;6.346;2024-01-25T02:44:29;2.80;;;1.25;;
65358;SDS011;52491;45.900;6.346;2024-01-25T02:46:54;1.55;;;1.40;;
65358;SDS011;52491;45.900;6.346;2024-01-25T02:49:20;1.83;;;1.52;;
65358;SDS011;52491;45.900;6.346;2024-01-25T02:51:45;2.45;;;1.52;;
65358;SDS011;52491;45.900;6.346;2024-01-25T02:54:11;1.88;;;1.48;;
65358;SDS011;52491;45.900;6.346;2024-01-25T02:56:36;1.52;;;1.30;;
65358;SDS011;52491;45.900;6.346;2024-01-25T02:59:02;1.65;;;1.40;;
65358;SDS011;52491;45.900;6.346;2024-01-25T03:01:27;1.80;;;1.30;;
65358;SDS011;52491;45.900;6.346;2024-01-25T03:03:53;1.90;;;1.10;;
65358;SDS011;52491;45.900;6.346;2024-01-25T03:06:18;1.77;;;1.60;;
65358;SDS011;52491;45.900;6.346;2024-01-25T03:08:45;1.70;;;1.20;;
65358;SDS011;52491;45.900;6.346;2024-01-25T03:11:10;2.78;;;1.67;;
65358;SDS011;52491;45.900;6.346;2024-01-25T03:13:36;1.83;;;1.50;;
65358;SDS011;52491;45.900;6.346;2024-01-25T03:16:01;2.05;;;1.60;;
65358;SDS011;52491;45.900;6.346;2024-01-25T03:18:27;1.35;;;1.25;;
65358;SDS011;52491;45.900;6.346;2024-01-25T03:20:53;3.45;;;1.27;;
65358;SDS011;52491;45.900;6.346;2024-01-25T03:23:18;1.50;;;1.33;;
65358;SDS011;52491;45.900;6.346;2024-01-25T03:25:44;1.10;;;1.00;;
65358;SDS011;52491;45.900;6.346;2024-01-25T03:28:09;1.75;;;1.23;;
65358;SDS011;52491;45.900;6.346;2024-01-25T03:30:36;2.35;;;1.45;;
65358;SDS011;52491;45.900;6.346;2024-01-25T03:33:01;1.67;;;1.42;;
65358;SDS011;52491;45.900;6.346;2024-01-25T03:35:27;2.10;;;1.90;;
65358;SDS011;52491;45.900;6.346;2024-01-25T03:37:52;2.67;;;2.00;;
65358;SDS011;52491;45.900;6.346;2024-01-25T03:40:18;2.00;;;1.35;;
65358;SDS011;52491;45.900;6.346;2024-01-25T03:42:44;2.65;;;1.35;;
65358;SDS011;52491;45.900;6.346;2024-01-25T03:45:09;3.50;;;1.23;;
65358;SDS011;52491;45.900;6.346;2024-01-25T03:47:35;2.05;;;1.35;;
65358;SDS011;52491;45.900;6.346;2024-01-25T03:50:00;1.20;;;1.10;;
65358;SDS011;52491;45.900;6.346;2024-01-25T03:52:26;1.80;;;1.40;;
65358;SDS011;52491;45.900;6.346;2024-01-25T03:54:55;1.73;;;1.55;;
65358;SDS011;52491;45.900;6.346;2024-01-25T03:57:20;1.98;;;1.23;;
65358;SDS011;52491;45.900;6.346;2024-01-25T03:59:46;1.40;;;1.30;;
65358;SDS011;52491;45.900;6.346;2024-01-25T04:02:11;1.40;;;1.23;;
65358;SDS011;52491;45.900;6.346;2024-01-25T04:04:37;2.83;;;1.85;;
65358;SDS011;52491;45.900;6.346;2024-01-25T04:07:02;2.38;;;1.80;;
65358;SDS011;52491;45.900;6.346;2024-01-25T04:09:28;2.50;;;1.98;;
65358;SDS011;52491;45.900;6.346;2024-01-25T04:11:55;1.63;;;1.52;;
65358;SDS011;52491;45.900;6.346;2024-01-25T04:14:21;1.50;;;1.40;;
65358;SDS011;52491;45.900;6.346;2024-01-25T04:16:46;2.15;;;1.95;;
65358;SDS011;52491;45.900;6.346;2024-01-25T04:19:12;1.92;;;1.48;;
65358;SDS011;52491;45.900;6.346;2024-01-25T04:21:38;1.75;;;1.48;;
65358;SDS011;52491;45.900;6.346;2024-01-25T04:24:03;1.92;;;1.73;;
65358;SDS011;52491;45.900;6.346;2024-01-25T04:26:29;1.95;;;1.52;;
65358;SDS011;52491;45.900;6.346;2024-01-25T04:28:55;1.88;;;1.45;;
65358;SDS011;52491;45.900;6.346;2024-01-25T04:31:20;2.20;;;1.48;;
65358;SDS011;52491;45.900;6.346;2024-01-25T04:33:46;2.03;;;1.73;;
65358;SDS011;52491;45.900;6.346;2024-01-25T04:36:11;2.25;;;1.50;;
65358;SDS011;52491;45.900;6.346;2024-01-25T04:38:37;2.10;;;1.50;;
65358;SDS011;52491;45.900;6.346;2024-01-25T04:41:02;1.50;;;1.20;;
65358;SDS011;52491;45.900;6.346;2024-01-25T04:43:28;1.63;;;1.50;;
65358;SDS011;52491;45.900;6.346;2024-01-25T04:45:53;1.30;;;1.20;;
65358;SDS011;52491;45.900;6.346;2024-01-25T04:48:19;1.65;;;1.20;;
65358;SDS011;52491;45.900;6.346;2024-01-25T04:50:44;1.17;;;1.08;;
65358;SDS011;52491;45.900;6.346;2024-01-25T04:53:10;2.08;;;1.35;;
65358;SDS011;52491;45.900;6.346;2024-01-25T04:55:35;2.15;;;1.60;;
65358;SDS011;52491;45.900;6.346;2024-01-25T04:58:01;1.40;;;1.30;;
65358;SDS011;52491;45.900;6.346;2024-01-25T05:00:26;1.50;;;1.23;;
65358;SDS011;52491;45.900;6.346;2024-01-25T05:02:52;1.27;;;1.15;;
65358;SDS011;52491;45.900;6.346;2024-01-25T05:05:17;3.33;;;1.30;;
65358;SDS011;52491;45.900;6.346;2024-01-25T05:07:43;1.55;;;1.30;;
65358;SDS011;52491;45.900;6.346;2024-01-25T05:10:08;1.67;;;1.42;;
65358;SDS011;52491;45.900;6.346;2024-01-25T05:12:34;1.65;;;1.30;;
65358;SDS011;52491;45.900;6.346;2024-01-25T05:14:59;3.35;;;1.20;;
65358;SDS011;52491;45.900;6.346;2024-01-25T05:17:25;1.75;;;1.00;;
65358;SDS011;52491;45.900;6.346;2024-01-25T05:19:50;4.05;;;1.27;;
65358;SDS011;52491;45.900;6.346;2024-01-25T05:22:16;1.48;;;1.30;;
65358;SDS011;52491;45.900;6.346;2024-01-25T05:24:42;1.70;;;1.55;;
65358;SDS011;52491;45.900;6.346;2024-01-25T05:27:07;1.58;;;1.38;;
65358;SDS011;52491;45.900;6.346;2024-01-25T05:29:33;1.58;;;1.23;;
65358;SDS011;52491;45.900;6.346;2024-01-25T05:31:58;1.10;;;1.00;;
65358;SDS011;52491;45.900;6.346;2024-01-25T05:34:24;3.97;;;1.05;;
65358;SDS011;52491;45.900;6.346;2024-01-25T05:36:50;5.53;;;2.17;;
65358;SDS011;52491;45.900;6.346;2024-01-25T05:39:15;1.80;;;1.20;;
65358;SDS011;52491;45.900;6.346;2024-01-25T05:41:42;2.20;;;1.45;;
65358;SDS011;52491;45.900;6.346;2024-01-25T05:44:10;1.52;;;1.25;;
65358;SDS011;52491;45.900;6.346;2024-01-25T05:46:36;1.45;;;1.35;;
65358;SDS011;52491;45.900;6.346;2024-01-25T05:49:02;1.00;;;1.00;;
65358;SDS011;52491;45.900;6.346;2024-01-25T05:51:27;1.45;;;1.35;;
65358;SDS011;52491;45.900;6.346;2024-01-25T05:53:53;1.35;;;0.93;;
65358;SDS011;52491;45.900;6.346;2024-01-25T05:56:18;1.83;;;1.08;;
65358;SDS011;52491;45.900;6.346;2024-01-25T05:58:44;3.08;;;1.45;;
65358;SDS011;52491;45.900;6.346;2024-01-25T06:01:09;2.20;;;1.35;;
65358;SDS011;52491;45.900;6.346;2024-01-25T06:03:35;2.28;;;1.25;;
65358;SDS011;52491;45.900;6.346;2024-01-25T06:06:00;1.35;;;0.90;;
65358;SDS011;52491;45.900;6.346;2024-01-25T06:08:26;0.98;;;0.90;;
65358;SDS011;52491;45.900;6.346;2024-01-25T06:10:51;1.42;;;1.27;;
65358;SDS011;52491;45.900;6.346;2024-01-25T06:13:17;2.17;;;1.50;;
65358;SDS011;52491;45.900;6.346;2024-01-25T06:15:42;2.05;;;1.15;;
65358;SDS011;52491;45.900;6.346;2024-01-25T06:18:08;2.55;;;1.20;;
65358;SDS011;52491;45.900;6.346;2024-01-25T06:20:33;2.00;;;1.10;;
65358;SDS011;52491;45.900;6.346;2024-01-25T06:22:59;1.60;;;1.00;;
65358;SDS011;52491;45.900;6.346;2024-01-25T06:25:24;4.95;;;1.52;;
65358;SDS011;52491;45.900;6.346;2024-01-25T06:27:51;8.05;;;1.95;;
65358;SDS011;52491;45.900;6.346;2024-01-25T06:30:17;4.10;;;1.45;;
65358;SDS011;52491;45.900;6.346;2024-01-25T06:32:44;2.15;;;1.48;;
65358;SDS011;52491;45.900;6.346;2024-01-25T06:35:10;3.17;;;1.23;;
65358;SDS011;52491;45.900;6.346;2024-01-25T06:37:36;3.53;;;2.10;;
65358;SDS011;52491;45.900;6.346;2024-01-25T06:40:01;1.52;;;1.10;;
65358;SDS011;52491;45.900;6.346;2024-01-25T06:42:27;5.72;;;1.42;;
65358;SDS011;52491;45.900;6.346;2024-01-25T06:44:53;7.65;;;1.65;;
65358;SDS011;52491;45.900;6.346;2024-01-25T06:47:18;4.13;;;1.20;;
65358;SDS011;52491;45.900;6.346;2024-01-25T06:49:44;1.75;;;1.30;;
65358;SDS011;52491;45.900;6.346;2024-01-25T06:52:12;2.65;;;1.52;;
65358;SDS011;52491;45.900;6.346;2024-01-25T06:54:38;1.58;;;1.02;;
65358;SDS011;52491;45.900;6.346;2024-01-25T06:57:03;1.20;;;1.10;;
65358;SDS011;52491;45.900;6.346;2024-01-25T06:59:29;2.67;;;1.52;;
65358;SDS011;52491;45.900;6.346;2024-01-25T07:01:55;3.40;;;1.05;;
65358;SDS011;52491;45.900;6.346;2024-01-25T07:04:20;1.85;;;1.05;;
65358;SDS011;52491;45.900;6.346;2024-01-25T07:06:46;1.25;;;1.15;;
65358;SDS011;52491;45.900;6.346;2024-01-25T07:09:11;1.65;;;0.98;;
65358;SDS011;52491;45.900;6.346;2024-01-25T07:11:37;6.72;;;1.45;;
65358;SDS011;52491;45.900;6.346;2024-01-25T07:14:02;1.70;;;1.48;;
65358;SDS011;52491;45.900;6.346;2024-01-25T07:16:28;2.50;;;1.20;;
65358;SDS011;52491;45.900;6.346;2024-01-25T07:18:55;1.42;;;0.93;;
65358;SDS011;52491;45.900;6.346;2024-01-25T07:21:21;3.20;;;1.60;;
65358;SDS011;52491;45.900;6.346;2024-01-25T07:23:46;1.02;;;0.93;;
65358;SDS011;52491;45.900;6.346;2024-01-25T07:26:16;2.28;;;1.20;;
65358;SDS011;52491;45.900;6.346;2024-01-25T07:28:43;1.70;;;1.50;;
65358;SDS011;52491;45.900;6.346;2024-01-25T07:31:08;2.45;;;1.20;;
65358;SDS011;52491;45.900;6.346;2024-01-25T07:33:34;3.92;;;1.80;;
65358;SDS011;52491;45.900;6.346;2024-01-25T07:36:00;6.57;;;1.77;;
65358;SDS011;52491;45.900;6.346;2024-01-25T07:38:26;2.88;;;1.20;;
65358;SDS011;52491;45.900;6.346;2024-01-25T07:40:51;1.98;;;1.42;;
65358;SDS011;52491;45.900;6.346;2024-01-25T07:43:17;2.30;;;1.30;;
65358;SDS011;52491;45.900;6.346;2024-01-25T07:45:43;4.28;;;1.85;;
65358;SDS011;52491;45.900;6.346;2024-01-25T07:48:08;2.40;;;1.83;;
65358;SDS011;52491;45.900;6.346;2024-01-25T07:50:34;2.20;;;1.20;;
65358;SDS011;52491;45.900;6.346;2024-01-25T07:52:59;2.28;;;1.65;;
65358;SDS011;52491;45.900;6.346;2024-01-25T07:55:26;2.67;;;1.70;;
65358;SDS011;52491;45.900;6.346;2024-01-25T07:57:52;2.08;;;1.48;;
65358;SDS011;52491;45.900;6.346;2024-01-25T08:00:17;2.35;;;1.60;;
65358;SDS011;52491;45.900;6.346;2024-01-25T08:02:43;3.80;;;1.95;;
65358;SDS011;52491;45.900;6.346;2024-01-25T08:05:10;2.95;;;1.58;;
65358;SDS011;52491;45.900;6.346;2024-01-25T08:07:36;2.75;;;1.58;;
65358;SDS011;52491;45.900;6.346;2024-01-25T08:10:02;2.33;;;1.52;;
65358;SDS011;52491;45.900;6.346;2024-01-25T08:12:29;1.98;;;1.60;;
65358;SDS011;52491;45.900;6.346;2024-01-25T08:14:55;3.25;;;1.48;;
65358;SDS011;52491;45.900;6.346;2024-01-25T08:17:20;1.63;;;1.20;;
65358;SDS011;52491;45.900;6.346;2024-01-25T08:19:46;2.90;;;1.40;;
65358;SDS011;52491;45.900;6.346;2024-01-25T08:22:11;2.20;;;1.70;;
65358;SDS011;52491;45.900;6.346;2024-01-25T08:24:38;3.42;;;1.20;;
65358;SDS011;52491;45.900;6.346;2024-01-25T08:27:04;1.77;;;1.25;;
65358;SDS011;52491;45.900;6.346;2024-01-25T08:29:30;2.95;;;1.52;;
65358;SDS011;52491;45.900;6.346;2024-01-25T08:31:55;2.00;;;1.27;;
65358;SDS011;52491;45.900;6.346;2024-01-25T08:34:21;1.92;;;1.38;;
65358;SDS011;52491;45.900;6.346;2024-01-25T08:36:46;1.63;;;1.35;;
65358;SDS011;52491;45.900;6.346;2024-01-25T08:39:12;1.52;;;0.82;;
65358;SDS011;52491;45.900;6.346;2024-01-25T08:41:37;5.57;;;1.60;;
65358;SDS011;52491;45.900;6.346;2024-01-25T08:44:03;1.98;;;1.45;;
65358;SDS011;52491;45.900;6.346;2024-01-25T08:46:29;1.38;;;1.27;;
65358;SDS011;52491;45.900;6.346;2024-01-25T08:48:54;1.67;;;1.27;;
65358;SDS011;52491;45.900;6.346;2024-01-25T08:51:19;2.80;;;1.40;;
65358;SDS011;52491;45.900;6.346;2024-01-25T08:53:45;2.72;;;1.65;;
65358;SDS011;52491;45.900;6.346;2024-01-25T08:56:10;1.30;;;0.98;;
65358;SDS011;52491;45.900;6.346;2024-01-25T08:58:36;1.58;;;1.02;;
65358;SDS011;52491;45.900;6.346;2024-01-25T09:01:01;2.17;;;1.73;;
65358;SDS011;52491;45.900;6.346;2024-01-25T09:03:27;1.23;;;1.02;;
65358;SDS011;52491;45.900;6.346;2024-01-25T09:05:53;1.42;;;1.33;;
65358;SDS011;52491;45.900;6.346;2024-01-25T09:08:18;1.65;;;1.40;;
65358;SDS011;52491;45.900;6.346;2024-01-25T09:10:43;2.10;;;1.17;;
65358;SDS011;52491;45.900;6.346;2024-01-25T09:13:09;1.98;;;1.45;;
65358;SDS011;52491;45.900;6.346;2024-01-25T09:15:35;1.40;;;1.17;;
65358;SDS011;52491;45.900;6.346;2024-01-25T09:18:02;1.30;;;1.20;;
65358;SDS011;52491;45.900;6.346;2024-01-25T09:20:27;3.28;;;1.23;;
65358;SDS011;52491;45.900;6.346;2024-01-25T09:22:53;1.85;;;1.65;;
65358;SDS011;52491;45.900;6.346;2024-01-25T09:25:22;1.55;;;1.45;;
65358;SDS011;52491;45.900;6.346;2024-01-25T09:27:48;1.42;;;1.33;;
65358;SDS011;52491;45.900;6.346;2024-01-25T09:30:14;3.25;;;1.77;;
65358;SDS011;52491;45.900;6.346;2024-01-25T09:32:40;4.30;;;1.60;;
65358;SDS011;52491;45.900;6.346;2024-01-25T09:35:05;2.42;;;1.63;;
65358;SDS011;52491;45.900;6.346;2024-01-25T09:37:31;1.40;;;1.25;;
65358;SDS011;52491;45.900;6.346;2024-01-25T09:39:57;1.60;;;1.42;;
65358;SDS011;52491;45.900;6.346;2024-01-25T09:42:24;1.50;;;1.00;;
65358;SDS011;52491;45.900;6.346;2024-01-25T09:44:49;1.98;;;1.23;;
65358;SDS011;52491;45.900;6.346;2024-01-25T09:47:17;3.40;;;1.40;;
65358;SDS011;52491;45.900;6.346;2024-01-25T09:49:44;1.60;;;1.13;;
65358;SDS011;52491;45.900;6.346;2024-01-25T09:52:12;2.08;;;1.30;;
65358;SDS011;52491;45.900;6.346;2024-01-25T09:54:38;1.63;;;1.27;;
65358;SDS011;52491;45.900;6.346;2024-01-25T09:57:06;2.25;;;1.23;;
65358;SDS011;52491;45.900;6.346;2024-01-25T09:59:38;1.60;;;1.47;;
65358;SDS011;52491;45.900;6.346;2024-01-25T10:02:04;1.95;;;1.50;;
65358;SDS011;52491;45.900;6.346;2024-01-25T10:04:30;2.35;;;1.35;;
65358;SDS011;52491;45.900;6.346;2024-01-25T10:06:55;1.85;;;1.02;;
65358;SDS011;52491;45.900;6.346;2024-01-25T10:09:22;2.05;;;1.40;;
65358;SDS011;52491;45.900;6.346;2024-01-25T10:11:47;1.98;;;1.42;;
65358;SDS011;52491;45.900;6.346;2024-01-25T10:14:13;3.28;;;1.70;;
65358;SDS011;52491;45.900;6.346;2024-01-25T10:16:39;1.85;;;1.60;;
65358;SDS011;52491;45.900;6.346;2024-01-25T10:19:06;1.17;;;1.02;;
65358;SDS011;52491;45.900;6.346;2024-01-25T10:21:32;1.35;;;1.23;;
65358;SDS011;52491;45.900;6.346;2024-01-25T10:24:00;1.63;;;1.00;;
65358;SDS011;52491;45.900;6.346;2024-01-25T10:26:26;1.35;;;1.15;;
65358;SDS011;52491;45.900;6.346;2024-01-25T10:28:53;1.65;;;1.38;;
65358;SDS011;52491;45.900;6.346;2024-01-25T10:31:22;1.58;;;1.13;;
65358;SDS011;52491;45.900;6.346;2024-01-25T10:33:49;0.85;;;0.75;;
65358;SDS011;52491;45.900;6.346;2024-01-25T10:36:18;2.13;;;1.10;;
65358;SDS011;52491;45.900;6.346;2024-01-25T10:38:46;1.23;;;1.13;;
65358;SDS011;52491;45.900;6.346;2024-01-25T10:41:13;1.33;;;1.08;;
65358;SDS011;52491;45.900;6.346;2024-01-25T10:43:39;1.63;;;1.17;;
65358;SDS011;52491;45.900;6.346;2024-01-25T10:46:06;2.13;;;1.00;;
65358;SDS011;52491;45.900;6.346;2024-01-25T10:48:34;1.20;;;1.05;;
65358;SDS011;52491;45.900;6.346;2024-01-25T10:50:59;1.17;;;1.08;;
65358;SDS011;52491;45.900;6.346;2024-01-25T10:53:29;1.00;;;0.88;;
65358;SDS011;52491;45.900;6.346;2024-01-25T10:55:57;0.68;;;0.68;;
65358;SDS011;52491;45.900;6.346;2024-01-25T10:58:23;1.83;;;1.02;;
65358;SDS011;52491;45.900;6.346;2024-01-25T11:00:52;1.15;;;1.05;;
65358;SDS011;52491;45.900;6.346;2024-01-25T11:03:20;1.00;;;0.90;;
65358;SDS011;52491;45.900;6.346;2024-01-25T11:05:52;1.75;;;1.13;;
65358;SDS011;52491;45.900;6.346;2024-01-25T11:08:19;1.20;;;1.10;;
65358;SDS011;52491;45.900;6.346;2024-01-25T11:10:48;6.28;;;1.38;;
65358;SDS011;52491;45.900;6.346;2024-01-25T11:13:23;1.92;;;0.95;;
65358;SDS011;52491;45.900;6.346;2024-01-25T11:15:50;1.85;;;0.98;;
65358;SDS011;52491;45.900;6.346;2024-01-25T11:18:16;1.50;;;0.90;;
65358;SDS011;52491;45.900;6.346;2024-01-25T11:20:41;2.75;;;1.00;;
65358;SDS011;52491;45.900;6.346;2024-01-25T11:23:07;2.28;;;0.75;;
65358;SDS011;52491;45.900;6.346;2024-01-25T11:25:35;1.00;;;0.85;;
65358;SDS011;52491;45.900;6.346;2024-01-25T11:28:01;2.15;;;1.05;;
65358;SDS011;52491;45.900;6.346;2024-01-25T11:30:29;1.17;;;1.00;;
65358;SDS011;52491;45.900;6.346;2024-01-25T11:32:57;1.85;;;1.35;;
65358;SDS011;52491;45.900;6.346;2024-01-25T11:35:23;1.33;;;0.77;;
65358;SDS011;52491;45.900;6.346;2024-01-25T11:37:49;0.70;;;0.70;;
65358;SDS011;52491;45.900;6.346;2024-01-25T11:40:18;1.23;;;0.85;;
65358;SDS011;52491;45.900;6.346;2024-01-25T11:42:44;1.20;;;1.10;;
65358;SDS011;52491;45.900;6.346;2024-01-25T11:45:13;0.88;;;0.75;;
65358;SDS011;52491;45.900;6.346;2024-01-25T11:47:39;1.02;;;0.90;;
65358;SDS011;52491;45.900;6.346;2024-01-25T11:50:06;3.60;;;0.98;;
65358;SDS011;52491;45.900;6.346;2024-01-25T11:52:34;1.38;;;1.10;;
65358;SDS011;52491;45.900;6.346;2024-01-25T11:55:04;2.15;;;1.00;;
65358;SDS011;52491;45.900;6.346;2024-01-25T11:57:40;4.72;;;0.90;;
65358;SDS011;52491;45.900;6.346;2024-01-25T12:00:17;4.38;;;0.90;;
65358;SDS011;52491;45.900;6.346;2024-01-25T12:02:43;1.20;;;1.00;;
65358;SDS011;52491;45.900;6.346;2024-01-25T12:05:09;6.20;;;1.00;;
65358;SDS011;52491;45.900;6.346;2024-01-25T12:07:36;2.13;;;0.82;;
65358;SDS011;52491;45.900;6.346;2024-01-25T12:10:05;0.73;;;0.70;;
65358;SDS011;52491;45.900;6.346;2024-01-25T12:12:32;1.35;;;0.75;;
65358;SDS011;52491;45.900;6.346;2024-01-25T12:15:00;6.80;;;1.10;;
65358;SDS011;52491;45.900;6.346;2024-01-25T12:17:29;0.80;;;0.80;;
65358;SDS011;52491;45.900;6.346;2024-01-25T12:19:56;1.15;;;0.80;;
65358;SDS011;52491;45.900;6.346;2024-01-25T12:22:22;1.85;;;0.95;;
65358;SDS011;52491;45.900;6.346;2024-01-25T12:24:50;1.60;;;0.63;;
65358;SDS011;52491;45.900;6.346;2024-01-25T12:27:18;2.55;;;0.70;;
65358;SDS011;52491;45.900;6.346;2024-01-25T12:29:45;1.00;;;0.55;;
65358;SDS011;52491;45.900;6.346;2024-01-25T12:32:11;0.80;;;0.60;;
65358;SDS011;52491;45.900;6.346;2024-01-25T12:34:37;1.40;;;0.73;;
65358;SDS011;52491;45.900;6.346;2024-01-25T12:37:04;2.55;;;0.90;;
65358;SDS011;52491;45.900;6.346;2024-01-25T12:39:29;1.02;;;0.60;;
65358;SDS011;52491;45.900;6.346;2024-01-25T12:41:55;0.70;;;0.52;;
65358;SDS011;52491;45.900;6.346;2024-01-25T12:44:20;0.70;;;0.70;;
65358;SDS011;52491;45.900;6.346;2024-01-25T12:46:46;0.82;;;0.82;;
65358;SDS011;52491;45.900;6.346;2024-01-25T12:49:12;1.02;;;0.70;;
65358;SDS011;52491;45.900;6.346;2024-01-25T12:51:37;0.77;;;0.50;;
65358;SDS011;52491;45.900;6.346;2024-01-25T12:54:03;0.50;;;0.47;;
65358;SDS011;52491;45.900;6.346;2024-01-25T12:56:28;0.52;;;0.50;;
65358;SDS011;52491;45.900;6.346;2024-01-25T12:58:54;0.65;;;0.60;;
65358;SDS011;52491;45.900;6.346;2024-01-25T13:01:19;1.20;;;0.60;;
65358;SDS011;52491;45.900;6.346;2024-01-25T13:03:45;0.80;;;0.60;;
65358;SDS011;52491;45.900;6.346;2024-01-25T13:06:12;0.47;;;0.45;;
65358;SDS011;52491;45.900;6.346;2024-01-25T13:08:37;0.50;;;0.50;;
65358;SDS011;52491;45.900;6.346;2024-01-25T13:11:03;1.33;;;0.77;;
65358;SDS011;52491;45.900;6.346;2024-01-25T13:13:29;0.60;;;0.60;;
65358;SDS011;52491;45.900;6.346;2024-01-25T13:15:54;0.80;;;0.60;;
65358;SDS011;52491;45.900;6.346;2024-01-25T13:18:20;0.70;;;0.60;;
65358;SDS011;52491;45.900;6.346;2024-01-25T13:20:45;0.52;;;0.43;;
65358;SDS011;52491;45.900;6.346;2024-01-25T13:23:11;1.13;;;0.40;;
65358;SDS011;52491;45.900;6.346;2024-01-25T13:25:36;2.08;;;0.73;;
65358;SDS011;52491;45.900;6.346;2024-01-25T13:28:02;1.45;;;0.68;;
65358;SDS011;52491;45.900;6.346;2024-01-25T13:30:27;0.77;;;0.52;;
65358;SDS011;52491;45.900;6.346;2024-01-25T13:32:53;1.10;;;0.75;;
65358;SDS011;52491;45.900;6.346;2024-01-25T13:35:18;0.52;;;0.40;;
65358;SDS011;52491;45.900;6.346;2024-01-25T13:37:44;0.65;;;0.47;;
65358;SDS011;52491;45.900;6.346;2024-01-25T13:40:10;1.08;;;0.60;;
65358;SDS011;52491;45.900;6.346;2024-01-25T13:42:35;2.28;;;1.00;;
65358;SDS011;52491;45.900;6.346;2024-01-25T13:45:01;0.60;;;0.50;;
65358;SDS011;52491;45.900;6.346;2024-01-25T13:47:26;1.17;;;0.70;;
65358;SDS011;52491;45.900;6.346;2024-01-25T13:49:52;1.33;;;0.73;;
65358;SDS011;52491;45.900;6.346;2024-01-25T13:52:18;0.50;;;0.50;;
65358;SDS011;52491;45.900;6.346;2024-01-25T13:54:44;1.42;;;1.00;;
65358;SDS011;52491;45.900;6.346;2024-01-25T13:57:11;0.50;;;0.40;;
65358;SDS011;52491;45.900;6.346;2024-01-25T13:59:36;1.05;;;0.60;;
65358;SDS011;52491;45.900;6.346;2024-01-25T14:02:02;0.70;;;0.60;;
65358;SDS011;52491;45.900;6.346;2024-01-25T14:04:27;0.60;;;0.60;;
65358;SDS011;52491;45.900;6.346;2024-01-25T14:06:53;0.40;;;0.40;;
65358;SDS011;52491;45.900;6.346;2024-01-25T14:09:18;0.52;;;0.43;;
65358;SDS011;52491;45.900;6.346;2024-01-25T14:11:44;1.27;;;0.50;;
65358;SDS011;52491;45.900;6.346;2024-01-25T14:14:09;0.65;;;0.40;;
65358;SDS011;52491;45.900;6.346;2024-01-25T14:16:35;0.85;;;0.40;;
65358;SDS011;52491;45.900;6.346;2024-01-25T14:19:01;0.50;;;0.50;;
65358;SDS011;52491;45.900;6.346;2024-01-25T14:21:28;0.60;;;0.50;;
65358;SDS011;52491;45.900;6.346;2024-01-25T14:23:54;0.73;;;0.40;;
65358;SDS011;52491;45.900;6.346;2024-01-25T14:26:20;0.20;;;0.20;;
65358;SDS011;52491;45.900;6.346;2024-01-25T14:28:45;0.47;;;0.45;;
65358;SDS011;52491;45.900;6.346;2024-01-25T14:31:11;0.45;;;0.45;;
65358;SDS011;52491;45.900;6.346;2024-01-25T14:33:36;0.70;;;0.60;;
65358;SDS011;52491;45.900;6.346;2024-01-25T14:36:02;1.00;;;0.50;;
65358;SDS011;52491;45.900;6.346;2024-01-25T14:38:28;0.43;;;0.43;;
65358;SDS011;52491;45.900;6.346;2024-01-25T14:40:54;0.73;;;0.60;;